createdAt,value
2018-12-14T00:00:15.951Z,101994.00
2018-12-14T00:02:44.034Z,101996.00
2018-12-14T00:05:12.104Z,102010.00
2018-12-14T00:07:40.185Z,102010.00
2018-12-14T00:10:08.257Z,102013.00
2018-12-14T00:12:36.816Z,102005.00
2018-12-14T00:15:05.793Z,102012.00
2018-12-14T00:17:33.857Z,101995.00
2018-12-14T00:20:01.933Z,102002.00
2018-12-14T00:22:30.309Z,102004.00
2018-12-14T00:24:58.388Z,102015.00
2018-12-14T00:27:26.708Z,102007.00
2018-12-14T00:29:55.061Z,102002.00
2018-12-14T00:32:23.134Z,102013.00
2018-12-14T00:34:51.706Z,102010.00
2018-12-14T00:37:19.762Z,102008.00
2018-12-14T00:39:47.822Z,102014.00
2018-12-14T00:42:16.108Z,102025.00
2018-12-14T00:44:44.163Z,102011.00
2018-12-14T00:47:12.228Z,102014.00
2018-12-14T00:49:41.019Z,102024.00
2018-12-14T00:52:09.084Z,102035.00
2018-12-14T00:54:37.156Z,102027.00
2018-12-14T00:57:05.585Z,102031.00
2018-12-14T00:59:33.653Z,102035.00
2018-12-14T01:02:01.732Z,102028.00
2018-12-14T01:04:29.812Z,102038.00
2018-12-14T01:06:57.901Z,102037.00
2018-12-14T01:09:26.013Z,102039.00
2018-12-14T01:11:58.227Z,102042.00
2018-12-14T01:14:24.136Z,102044.00
2018-12-14T01:16:52.200Z,102041.00
2018-12-14T01:19:20.797Z,102041.00
2018-12-14T01:21:48.906Z,102039.00
2018-12-14T01:24:16.961Z,102038.00
2018-12-14T01:26:45.033Z,102042.00
2018-12-14T01:29:13.096Z,102047.00
2018-12-14T01:31:41.166Z,102042.00
2018-12-14T01:34:09.235Z,102044.00
2018-12-14T01:36:37.293Z,102040.00
2018-12-14T01:39:06.662Z,102040.00
2018-12-14T01:41:35.076Z,102043.00
2018-12-14T01:44:03.149Z,102041.00
2018-12-14T01:46:31.292Z,102038.00
2018-12-14T01:48:59.382Z,102046.00
2018-12-14T01:51:27.671Z,102036.00
2018-12-14T01:53:55.730Z,102026.00
2018-12-14T01:56:23.813Z,102032.00
2018-12-14T01:58:51.869Z,102027.00
2018-12-14T02:01:19.956Z,102029.00
2018-12-14T02:03:48.335Z,102027.00
2018-12-14T02:06:16.406Z,102029.00
2018-12-14T02:08:44.469Z,102032.00
2018-12-14T02:11:12.543Z,102039.00
2018-12-14T02:13:41.232Z,102039.00
2018-12-14T02:16:09.319Z,102044.00
2018-12-14T02:18:37.375Z,102036.00
2018-12-14T02:21:05.551Z,102040.00
2018-12-14T02:23:33.610Z,102035.00
2018-12-14T02:26:01.900Z,102031.00
2018-12-14T02:28:30.052Z,102031.00
2018-12-14T02:30:58.134Z,102038.00
2018-12-14T02:33:26.215Z,102031.00
2018-12-14T02:35:54.282Z,102028.00
2018-12-14T02:38:22.356Z,102033.00
2018-12-14T02:40:50.462Z,102035.00
2018-12-14T02:43:19.937Z,102039.00
2018-12-14T02:45:48.006Z,102042.00
2018-12-14T02:48:16.405Z,102033.00
2018-12-14T02:50:44.493Z,102032.00
2018-12-14T02:53:12.909Z,102032.00
2018-12-14T02:55:41.028Z,102029.00
2018-12-14T02:58:09.083Z,102039.00
2018-12-14T03:00:37.153Z,102038.00
2018-12-14T03:03:05.232Z,102036.00
2018-12-14T03:05:33.352Z,102033.00
2018-12-14T03:08:01.424Z,102037.00
2018-12-14T03:10:29.822Z,102029.00
2018-12-14T03:12:57.891Z,102027.00
2018-12-14T03:15:26.013Z,102034.00
2018-12-14T03:17:54.076Z,102031.00
2018-12-14T03:20:22.141Z,102036.00
2018-12-14T03:22:50.240Z,102035.00
2018-12-14T03:25:18.369Z,102030.00
2018-12-14T03:27:46.425Z,102036.00
2018-12-14T03:30:14.501Z,102034.00
2018-12-14T03:32:42.913Z,102037.00
2018-12-14T03:35:11.082Z,102044.00
2018-12-14T03:37:39.144Z,102039.00
2018-12-14T03:40:07.553Z,102041.00
2018-12-14T03:42:35.614Z,102043.00
2018-12-14T03:45:03.870Z,102036.00
2018-12-14T03:47:31.953Z,102032.00
2018-12-14T03:50:00.019Z,102032.00
2018-12-14T03:52:28.090Z,102031.00
2018-12-14T03:54:56.207Z,102029.00
2018-12-14T03:57:24.282Z,102032.00
2018-12-14T03:59:52.353Z,102030.00
2018-12-14T04:02:20.442Z,102021.00
2018-12-14T04:04:48.512Z,102024.00
2018-12-14T04:07:16.575Z,102038.00
2018-12-14T04:09:44.654Z,102036.00
2018-12-14T04:12:12.729Z,102032.00
2018-12-14T04:14:40.805Z,102028.00
2018-12-14T04:17:09.342Z,102036.00
2018-12-14T04:19:37.502Z,102044.00
2018-12-14T04:22:05.600Z,102042.00
2018-12-14T04:24:33.883Z,102042.00
2018-12-14T04:27:01.962Z,102043.00
2018-12-14T04:29:30.029Z,102037.00
2018-12-14T04:31:58.877Z,102046.00
2018-12-14T04:34:26.957Z,102040.00
2018-12-14T04:36:55.050Z,102044.00
2018-12-14T04:39:23.266Z,102045.00
2018-12-14T04:41:51.336Z,102042.00
2018-12-14T04:44:19.412Z,102044.00
2018-12-14T04:46:47.739Z,102031.00
2018-12-14T04:49:15.823Z,102042.00
2018-12-14T04:51:43.884Z,102038.00
2018-12-14T04:54:12.084Z,102040.00
2018-12-14T04:56:40.293Z,102039.00
2018-12-14T04:59:08.368Z,102044.00
2018-12-14T05:01:36.880Z,102043.00
2018-12-14T05:04:04.950Z,102034.00
2018-12-14T05:06:33.040Z,102026.00
2018-12-14T05:09:01.121Z,102028.00
2018-12-14T05:11:29.188Z,102027.00
2018-12-14T05:13:57.251Z,102037.00
2018-12-14T05:16:25.364Z,102040.00
2018-12-14T05:18:53.665Z,102036.00
2018-12-14T05:21:21.876Z,102039.00
2018-12-14T05:23:50.403Z,102030.00
2018-12-14T05:26:18.483Z,102031.00
2018-12-14T05:28:46.543Z,102048.00
2018-12-14T05:31:14.648Z,102048.00
2018-12-14T05:33:42.712Z,102048.00
2018-12-14T05:36:10.828Z,102050.00
2018-12-14T05:38:38.905Z,102049.00
2018-12-14T05:41:06.982Z,102053.00
2018-12-14T05:43:35.049Z,102049.00
2018-12-14T05:46:03.503Z,102053.00
2018-12-14T05:48:31.572Z,102059.00
2018-12-14T05:50:59.644Z,102054.00
2018-12-14T05:53:27.728Z,102065.00
2018-12-14T05:55:55.804Z,102054.00
2018-12-14T05:58:24.028Z,102057.00
2018-12-14T06:00:52.112Z,102062.00
2018-12-14T06:03:20.184Z,102063.00
2018-12-14T06:05:48.279Z,102063.00
2018-12-14T06:08:16.672Z,102064.00
2018-12-14T06:10:44.744Z,102067.00
2018-12-14T06:13:12.839Z,102079.00
2018-12-14T06:15:40.928Z,102068.00
2018-12-14T06:18:09.027Z,102071.00
2018-12-14T06:20:37.102Z,102071.00
2018-12-14T06:23:05.167Z,102074.00
2018-12-14T06:25:33.368Z,102078.00
2018-12-14T06:28:01.443Z,102075.00
2018-12-14T06:30:29.814Z,102080.00
2018-12-14T06:32:57.900Z,102087.00
2018-12-14T06:35:25.977Z,102074.00
2018-12-14T06:37:54.134Z,102084.00
2018-12-14T06:40:22.186Z,102089.00
2018-12-14T06:42:50.348Z,102086.00
2018-12-14T06:45:18.524Z,102090.00
2018-12-14T06:47:46.596Z,102108.00
2018-12-14T06:50:14.661Z,102097.00
2018-12-14T06:52:42.776Z,102101.00
2018-12-14T06:55:10.848Z,102104.00
2018-12-14T06:57:38.941Z,102105.00
2018-12-14T07:00:08.470Z,102118.00
2018-12-14T07:02:36.564Z,102101.00
2018-12-14T07:05:04.724Z,102114.00
2018-12-14T07:07:32.804Z,102109.00
2018-12-14T07:10:00.863Z,102107.00
2018-12-14T07:12:28.941Z,102111.00
2018-12-14T07:14:57.360Z,102121.00
2018-12-14T07:17:25.437Z,102118.00
2018-12-14T07:19:53.501Z,102115.00
2018-12-14T07:22:21.577Z,102116.00
2018-12-14T07:24:49.643Z,102126.00
2018-12-14T07:27:17.715Z,102116.00
2018-12-14T07:29:45.805Z,102118.00
2018-12-14T07:32:13.883Z,102119.00
2018-12-14T07:34:41.977Z,102120.00
2018-12-14T07:37:10.144Z,102114.00
2018-12-14T07:39:38.212Z,102125.00
2018-12-14T07:42:06.296Z,102120.00
2018-12-14T07:44:34.514Z,102131.00
2018-12-14T07:47:02.755Z,102142.00
2018-12-14T07:49:30.829Z,102138.00
2018-12-14T07:51:58.903Z,102141.00
2018-12-14T07:54:26.968Z,102133.00
2018-12-14T07:56:55.683Z,102147.00
2018-12-14T07:59:24.595Z,102144.00
2018-12-14T08:01:52.740Z,102146.00
2018-12-14T08:04:20.812Z,102145.00
2018-12-14T08:06:48.880Z,102147.00
2018-12-14T08:09:17.054Z,102158.00
2018-12-14T08:11:45.124Z,102151.00
2018-12-14T08:14:13.202Z,102158.00
2018-12-14T08:16:41.279Z,102148.00
2018-12-14T08:19:09.381Z,102162.00
2018-12-14T08:21:37.797Z,102163.00
2018-12-14T08:24:05.864Z,102170.00
2018-12-14T08:26:33.983Z,102172.00
2018-12-14T08:29:02.048Z,102168.00
2018-12-14T08:31:30.143Z,102172.00
2018-12-14T08:33:58.212Z,102173.00
2018-12-14T08:36:26.298Z,102177.00
2018-12-14T08:38:54.402Z,102178.00
2018-12-14T08:41:22.491Z,102185.00
2018-12-14T08:43:51.020Z,102183.00
2018-12-14T08:46:19.101Z,102183.00
2018-12-14T08:48:47.172Z,102191.00
2018-12-14T08:51:15.740Z,102187.00
2018-12-14T08:53:43.832Z,102183.00
2018-12-14T08:56:11.904Z,102194.00
2018-12-14T08:58:39.981Z,102191.00
2018-12-14T09:01:08.062Z,102201.00
2018-12-14T09:03:36.475Z,102208.00
2018-12-14T09:06:04.791Z,102195.00
2018-12-14T09:08:32.865Z,102200.00
2018-12-14T09:11:00.932Z,102209.00
2018-12-14T09:13:29.093Z,102215.00
2018-12-14T09:18:31.681Z,102203.00
2018-12-14T09:21:01.173Z,102210.00
2018-12-14T09:23:29.510Z,102205.00
2018-12-14T09:25:58.170Z,102204.00
2018-12-14T09:28:26.240Z,102204.00
2018-12-14T09:30:54.311Z,102205.00
2018-12-14T09:33:22.388Z,102219.00
2018-12-14T09:35:50.460Z,102213.00
2018-12-14T09:38:18.531Z,102207.00
2018-12-14T09:40:46.609Z,102216.00
2018-12-14T09:43:14.672Z,102210.00
2018-12-14T09:45:42.744Z,102192.00
2018-12-14T09:48:11.128Z,102212.00
2018-12-14T09:50:39.196Z,102210.00
2018-12-14T09:53:07.271Z,102216.00
2018-12-14T09:55:35.357Z,102207.00
2018-12-14T09:58:03.436Z,102222.00
2018-12-14T10:00:31.509Z,102220.00
2018-12-14T10:02:59.614Z,102213.00
2018-12-14T10:05:27.676Z,102212.00
2018-12-14T10:07:55.744Z,102208.00
2018-12-14T10:10:24.284Z,102213.00
2018-12-14T10:12:52.349Z,102210.00
2018-12-14T10:15:20.436Z,102204.00
2018-12-14T10:17:48.504Z,102207.00
2018-12-14T10:20:16.668Z,102202.00
2018-12-14T10:22:44.736Z,102205.00
2018-12-14T10:25:12.804Z,102212.00
2018-12-14T10:27:40.908Z,102213.00
2018-12-14T10:30:09.806Z,102211.00
2018-12-14T10:32:38.187Z,102211.00
2018-12-14T10:35:10.139Z,102220.00
2018-12-14T10:37:38.216Z,102209.00
2018-12-14T10:40:11.308Z,102210.00
2018-12-14T10:42:39.359Z,102209.00
2018-12-14T10:45:08.386Z,102206.00
2018-12-14T10:47:36.447Z,102205.00
2018-12-14T10:50:05.074Z,102202.00
2018-12-14T10:52:33.233Z,102204.00
2018-12-14T10:55:01.661Z,102210.00
2018-12-14T10:57:29.933Z,102169.00
2018-12-14T10:59:58.000Z,102205.00
2018-12-14T11:02:26.061Z,102202.00
2018-12-14T11:04:54.125Z,102209.00
2018-12-14T11:07:22.605Z,102194.00
2018-12-14T11:09:50.673Z,102205.00
2018-12-14T11:12:18.728Z,102200.00
2018-12-14T11:14:46.801Z,102210.00
2018-12-14T11:17:15.336Z,102195.00
2018-12-14T11:19:43.410Z,102210.00
2018-12-14T11:22:11.488Z,102209.00
2018-12-14T11:24:39.562Z,102211.00
2018-12-14T11:27:07.620Z,102202.00
2018-12-14T11:29:35.683Z,102220.00
2018-12-14T11:32:03.760Z,102219.00
2018-12-14T11:34:31.834Z,102219.00
2018-12-14T11:36:59.912Z,102210.00
2018-12-14T11:39:28.276Z,102211.00
2018-12-14T11:41:56.454Z,102219.00
2018-12-14T11:44:24.539Z,102214.00
2018-12-14T11:46:52.624Z,102220.00
2018-12-14T11:49:20.686Z,102219.00
2018-12-14T11:51:48.752Z,102225.00
2018-12-14T11:54:17.506Z,102228.00
2018-12-14T11:56:45.784Z,102237.00
2018-12-14T11:59:13.847Z,102232.00
2018-12-14T12:01:42.263Z,102233.00
2018-12-14T12:04:10.347Z,102223.00
2018-12-14T12:06:38.404Z,102219.00
2018-12-14T12:09:08.743Z,102226.00
2018-12-14T12:11:36.808Z,102226.00
2018-12-14T12:14:04.891Z,102233.00
2018-12-14T12:16:32.962Z,102230.00
2018-12-14T12:19:01.037Z,102234.00
2018-12-14T12:21:29.199Z,102231.00
2018-12-14T12:23:57.765Z,102228.00
2018-12-14T12:26:25.831Z,102230.00
2018-12-14T12:28:53.888Z,102229.00
2018-12-14T12:31:22.004Z,102224.00
2018-12-14T12:33:50.066Z,102232.00
2018-12-14T12:36:18.116Z,102234.00
2018-12-14T12:38:46.195Z,102220.00
2018-12-14T12:41:14.245Z,102223.00
2018-12-14T12:43:42.308Z,102219.00
2018-12-14T12:46:10.775Z,102223.00
2018-12-14T12:48:39.297Z,102233.00
2018-12-14T12:51:07.389Z,102235.00
2018-12-14T12:53:35.448Z,102235.00
2018-12-14T12:56:03.629Z,102234.00
2018-12-14T12:58:31.693Z,102233.00
2018-12-14T13:00:59.802Z,102226.00
2018-12-14T13:03:27.877Z,102226.00
2018-12-14T13:05:55.941Z,102222.00
2018-12-14T13:08:24.191Z,102221.00
2018-12-14T13:10:52.522Z,102222.00
2018-12-14T13:13:20.585Z,102226.00
2018-12-14T13:15:48.664Z,102230.00
2018-12-14T13:18:16.722Z,102229.00
2018-12-14T13:20:44.794Z,102233.00
2018-12-14T13:23:12.862Z,102230.00
2018-12-14T13:25:40.925Z,102247.00
2018-12-14T13:28:09.201Z,102238.00
2018-12-14T13:30:38.160Z,102248.00
2018-12-14T13:33:06.224Z,102244.00
2018-12-14T13:35:34.327Z,102246.00
2018-12-14T13:38:02.390Z,102248.00
2018-12-14T13:40:30.455Z,102260.00
2018-12-14T13:42:58.523Z,102248.00
2018-12-14T13:45:26.648Z,102243.00
2018-12-14T13:47:54.844Z,102253.00
2018-12-14T13:50:23.007Z,102254.00
2018-12-14T13:52:51.321Z,102254.00
2018-12-14T13:55:19.374Z,102256.00
2018-12-14T13:57:47.436Z,102258.00
2018-12-14T14:00:15.504Z,102242.00
2018-12-14T14:02:43.573Z,102255.00
2018-12-14T14:05:11.627Z,102251.00
2018-12-14T14:07:39.703Z,102263.00
2018-12-14T14:10:07.772Z,102265.00
2018-12-14T14:12:36.065Z,102256.00
2018-12-14T14:15:07.457Z,102268.00
2018-12-14T14:17:35.562Z,102260.00
2018-12-14T14:20:06.665Z,102264.00
2018-12-14T14:22:34.728Z,102272.00
2018-12-14T14:25:02.784Z,102274.00
2018-12-14T14:27:30.862Z,102270.00
2018-12-14T14:29:58.952Z,102277.00
2018-12-14T14:32:27.039Z,102278.00
2018-12-14T14:34:55.109Z,102292.00
2018-12-14T14:37:23.577Z,102293.00
2018-12-14T14:39:51.644Z,102289.00
2018-12-14T14:42:19.716Z,102289.00
2018-12-14T14:44:47.785Z,102297.00
2018-12-14T14:47:15.853Z,102290.00
2018-12-14T14:49:43.919Z,102300.00
2018-12-14T14:52:12.000Z,102293.00
2018-12-14T14:54:40.079Z,102305.00
2018-12-14T14:57:08.151Z,102302.00
2018-12-14T14:59:36.266Z,102311.00
2018-12-14T15:02:04.335Z,102289.00
2018-12-14T15:04:32.407Z,102301.00
2018-12-14T15:07:00.487Z,102307.00
2018-12-14T15:09:28.569Z,102308.00
2018-12-14T15:11:56.650Z,102307.00
2018-12-14T15:14:25.149Z,102302.00
2018-12-14T15:16:53.224Z,102292.00
2018-12-14T15:19:21.293Z,102302.00
2018-12-14T15:21:49.874Z,102307.00
2018-12-14T15:24:17.943Z,102311.00
2018-12-14T15:26:46.007Z,102304.00
2018-12-14T15:29:14.082Z,102308.00
2018-12-14T15:31:43.251Z,102310.00
2018-12-14T15:34:14.341Z,102304.00
2018-12-14T15:36:41.380Z,102309.00
2018-12-14T15:39:09.460Z,102314.00
2018-12-14T15:41:37.542Z,102311.00
2018-12-14T15:44:06.193Z,102311.00
2018-12-14T15:46:34.264Z,102308.00
2018-12-14T15:49:02.341Z,102315.00
2018-12-14T15:51:30.425Z,102313.00
2018-12-14T15:53:58.505Z,102314.00
2018-12-14T15:56:26.576Z,102325.00
2018-12-14T15:58:54.647Z,102328.00
2018-12-14T16:01:22.711Z,102319.00
2018-12-14T16:03:50.780Z,102335.00
2018-12-14T16:06:19.168Z,102338.00
2018-12-14T16:08:47.235Z,102334.00
2018-12-14T16:11:15.311Z,102329.00
2018-12-14T16:13:43.426Z,102336.00
2018-12-14T16:16:11.747Z,102336.00
2018-12-14T16:18:39.830Z,102339.00
2018-12-14T16:21:08.007Z,102336.00
2018-12-14T16:23:36.175Z,102342.00
2018-12-14T16:26:04.282Z,102338.00
2018-12-14T16:28:32.543Z,102333.00
2018-12-14T16:31:00.613Z,102344.00
2018-12-14T16:33:28.682Z,102349.00
2018-12-14T16:35:56.752Z,102335.00
2018-12-14T16:38:24.824Z,102340.00
2018-12-14T16:40:52.897Z,102341.00
2018-12-14T16:43:20.969Z,102342.00
2018-12-14T16:45:49.053Z,102338.00
2018-12-14T16:48:17.112Z,102340.00
2018-12-14T16:50:45.640Z,102347.00
2018-12-14T16:53:13.709Z,102335.00
2018-12-14T16:55:41.781Z,102346.00
2018-12-14T16:58:09.863Z,102341.00
2018-12-14T17:00:37.924Z,102341.00
2018-12-14T17:03:05.991Z,102345.00
2018-12-14T17:05:34.098Z,102347.00
2018-12-14T17:08:02.168Z,102343.00
2018-12-14T17:10:30.242Z,102342.00
2018-12-14T17:12:58.554Z,102340.00
2018-12-14T17:15:33.044Z,102346.00
2018-12-14T17:17:56.719Z,102356.00
2018-12-14T17:20:26.404Z,102347.00
2018-12-14T17:22:54.475Z,102357.00
2018-12-14T17:25:22.545Z,102347.00
2018-12-14T17:27:50.626Z,102373.00
2018-12-14T17:30:18.693Z,102355.00
2018-12-14T17:32:46.764Z,102349.00
2018-12-14T17:35:15.192Z,102356.00
2018-12-14T17:37:43.255Z,102357.00
2018-12-14T17:40:11.338Z,102356.00
2018-12-14T17:42:39.448Z,102357.00
2018-12-14T17:45:07.921Z,102353.00
2018-12-14T17:47:36.000Z,102356.00
2018-12-14T17:50:06.480Z,102360.00
2018-12-14T17:52:34.544Z,102349.00
2018-12-14T17:55:02.616Z,102356.00
2018-12-14T17:57:30.735Z,102356.00
2018-12-14T17:59:58.798Z,102358.00
2018-12-14T18:02:26.874Z,102375.00
2018-12-14T18:04:54.940Z,102364.00
2018-12-14T18:07:23.014Z,102369.00
2018-12-14T18:09:51.094Z,102374.00
2018-12-14T18:12:19.238Z,102373.00
2018-12-14T18:14:47.349Z,102364.00
2018-12-14T18:17:15.420Z,102363.00
2018-12-14T18:19:44.064Z,102371.00
2018-12-14T18:22:12.150Z,102357.00
2018-12-14T18:24:40.213Z,102367.00
2018-12-14T18:27:08.287Z,102367.00
2018-12-14T18:29:36.373Z,102372.00
2018-12-14T18:32:04.456Z,102376.00
2018-12-14T18:34:32.538Z,102374.00
2018-12-14T18:37:00.621Z,102375.00
2018-12-14T18:39:28.699Z,102373.00
2018-12-14T18:41:56.886Z,102375.00
2018-12-14T18:44:24.942Z,102386.00
2018-12-14T18:46:53.014Z,102375.00
2018-12-14T18:49:21.121Z,102390.00
2018-12-14T18:51:49.185Z,102386.00
2018-12-14T18:54:17.263Z,102385.00
2018-12-14T18:56:45.350Z,102399.00
2018-12-14T18:59:13.808Z,102389.00
2018-12-14T19:01:43.098Z,102396.00
2018-12-14T19:04:11.726Z,102400.00
2018-12-14T19:06:39.846Z,102399.00
2018-12-14T19:09:07.907Z,102398.00
2018-12-14T19:11:35.988Z,102399.00
2018-12-14T19:14:04.059Z,102403.00
2018-12-14T19:16:32.179Z,102390.00
2018-12-14T19:19:00.263Z,102404.00
2018-12-14T19:21:28.537Z,102402.00
2018-12-14T19:23:56.604Z,102400.00
2018-12-14T19:26:24.758Z,102405.00
2018-12-14T19:28:52.817Z,102412.00
2018-12-14T19:31:20.915Z,102405.00
2018-12-14T19:33:48.991Z,102417.00
2018-12-14T19:36:17.273Z,102412.00
2018-12-14T19:38:45.341Z,102419.00
2018-12-14T19:41:13.432Z,102419.00
2018-12-14T19:43:41.496Z,102418.00
2018-12-14T19:46:09.573Z,102424.00
2018-12-14T19:48:37.927Z,102429.00
2018-12-14T19:51:06.005Z,102415.00
2018-12-14T19:53:34.068Z,102423.00
2018-12-14T19:56:02.163Z,102431.00
2018-12-14T19:58:30.233Z,102428.00
2018-12-14T20:00:58.305Z,102443.00
2018-12-14T20:03:26.401Z,102435.00
2018-12-14T20:05:54.470Z,102433.00
2018-12-14T20:08:22.535Z,102430.00
2018-12-14T20:10:50.978Z,102432.00
2018-12-14T20:13:19.044Z,102431.00
2018-12-14T20:15:47.113Z,102440.00
2018-12-14T20:18:15.188Z,102440.00
2018-12-14T20:20:43.252Z,102437.00
2018-12-14T20:23:11.511Z,102445.00
2018-12-14T20:25:39.601Z,102442.00
2018-12-14T20:28:07.674Z,102450.00
2018-12-14T20:30:35.736Z,102441.00
2018-12-14T20:33:04.261Z,102458.00
2018-12-14T20:35:32.546Z,102448.00
2018-12-14T20:38:00.903Z,102457.00
2018-12-14T20:40:28.984Z,102457.00
2018-12-14T20:42:57.065Z,102461.00
2018-12-14T20:45:25.139Z,102459.00
2018-12-14T20:47:53.229Z,102461.00
2018-12-14T20:50:21.285Z,102462.00
2018-12-14T20:52:49.386Z,102455.00
2018-12-14T20:55:17.743Z,102462.00
2018-12-14T20:57:45.815Z,102468.00
2018-12-14T21:00:13.892Z,102462.00
2018-12-14T21:02:41.978Z,102464.00
2018-12-14T21:05:10.052Z,102456.00
2018-12-14T21:07:38.124Z,102465.00
2018-12-14T21:10:07.811Z,102455.00
2018-12-14T21:12:36.717Z,102464.00
2018-12-14T21:15:06.180Z,102459.00
2018-12-14T21:17:34.582Z,102454.00
2018-12-14T21:20:02.639Z,102460.00
2018-12-14T21:22:30.715Z,102455.00
2018-12-14T21:24:59.262Z,102458.00
2018-12-14T21:27:27.332Z,102450.00
2018-12-14T21:29:55.405Z,102462.00
2018-12-14T21:32:23.489Z,102459.00
2018-12-14T21:34:51.582Z,102464.00
2018-12-14T21:37:19.647Z,102472.00
2018-12-14T21:39:48.111Z,102462.00
2018-12-14T21:42:16.189Z,102461.00
2018-12-14T21:44:44.263Z,102459.00
2018-12-14T21:47:12.344Z,102458.00
2018-12-14T21:49:40.415Z,102462.00
2018-12-14T21:52:08.489Z,102454.00
2018-12-14T21:54:36.576Z,102467.00
2018-12-14T21:57:04.645Z,102461.00
2018-12-14T21:59:32.803Z,102462.00
2018-12-14T22:02:01.167Z,102458.00
2018-12-14T22:04:29.249Z,102452.00
2018-12-14T22:06:57.345Z,102454.00
2018-12-14T22:09:25.432Z,102454.00
2018-12-14T22:11:53.504Z,102455.00
2018-12-14T22:14:21.578Z,102452.00
2018-12-14T22:16:49.646Z,102458.00
2018-12-14T22:19:17.703Z,102454.00
2018-12-14T22:21:45.768Z,102456.00
2018-12-14T22:24:14.233Z,102453.00
2018-12-14T22:26:42.592Z,102455.00
2018-12-14T22:29:10.668Z,102449.00
2018-12-14T22:31:38.747Z,102468.00
2018-12-14T22:34:06.803Z,102459.00
2018-12-14T22:36:34.879Z,102461.00
2018-12-14T22:39:04.544Z,102455.00
2018-12-14T22:41:32.616Z,102450.00
2018-12-14T22:44:00.687Z,102459.00
2018-12-14T22:46:28.804Z,102458.00
2018-12-14T22:48:56.872Z,102457.00
2018-12-14T22:51:24.949Z,102451.00
2018-12-14T22:53:53.023Z,102459.00
2018-12-14T22:56:21.208Z,102464.00
2018-12-14T22:58:49.284Z,102463.00
2018-12-14T23:01:17.391Z,102454.00
2018-12-14T23:03:45.447Z,102456.00
2018-12-14T23:06:13.540Z,102452.00
2018-12-14T23:08:41.650Z,102452.00
2018-12-14T23:11:09.768Z,102453.00
2018-12-14T23:13:37.837Z,102459.00
2018-12-14T23:16:05.924Z,102456.00
2018-12-14T23:18:33.977Z,102461.00
2018-12-14T23:21:02.053Z,102464.00
2018-12-14T23:23:30.121Z,102464.00
2018-12-14T23:25:59.732Z,102465.00
2018-12-14T23:28:28.072Z,102467.00
2018-12-14T23:30:56.663Z,102464.00
2018-12-14T23:33:24.765Z,102473.00
2018-12-14T23:35:52.831Z,102464.00
2018-12-14T23:38:20.900Z,102472.00
2018-12-14T23:40:48.971Z,102476.00
2018-12-14T23:43:17.032Z,102475.00
2018-12-14T23:45:45.203Z,102477.00
2018-12-14T23:48:13.268Z,102482.00
2018-12-14T23:50:41.345Z,102476.00
2018-12-14T23:53:09.563Z,102480.00
2018-12-14T23:55:37.964Z,102472.00
2018-12-14T23:58:06.031Z,102485.00
